createdAt,value
2022-08-20T00:01:15.713Z,14.70
2022-08-20T00:03:44.747Z,17.10
2022-08-20T00:06:23.410Z,15.60
2022-08-20T00:08:51.108Z,24.30
2022-08-20T00:11:25.357Z,20.33
2022-08-20T00:13:57.906Z,24.05
2022-08-20T00:16:32.232Z,32.10
2022-08-20T00:19:01.452Z,17.13
2022-08-20T00:21:28.667Z,21.77
2022-08-20T00:23:58.981Z,18.20
2022-08-20T00:26:26.308Z,26.25
2022-08-20T00:28:54.025Z,23.52
2022-08-20T00:31:23.718Z,21.60
2022-08-20T00:33:52.262Z,12.55
2022-08-20T00:36:19.700Z,16.00
2022-08-20T00:38:47.095Z,16.35
2022-08-20T00:41:22.904Z,15.35
2022-08-20T00:44:18.281Z,15.13
2022-08-20T00:46:46.470Z,14.98
2022-08-20T00:49:25.280Z,10.73
2022-08-20T00:52:08.576Z,15.70
2022-08-20T00:54:49.300Z,10.43
2022-08-20T00:57:28.819Z,15.52
2022-08-20T01:00:28.741Z,21.85
2022-08-20T01:02:57.556Z,13.77
2022-08-20T01:05:29.450Z,23.98
2022-08-20T01:07:57.848Z,17.58
2022-08-20T01:10:31.432Z,15.60
2022-08-20T01:12:59.787Z,21.20
2022-08-20T01:18:01.209Z,19.85
2022-08-20T01:20:37.416Z,21.92
2022-08-20T01:23:29.780Z,22.55
2022-08-20T01:26:13.947Z,15.20
2022-08-20T01:28:52.276Z,24.60
2022-08-20T01:31:24.668Z,15.38
2022-08-20T01:33:55.195Z,22.40
2022-08-20T01:36:31.278Z,14.48
2022-08-20T01:39:00.259Z,16.10
2022-08-20T01:41:52.864Z,17.40
2022-08-20T01:44:21.582Z,15.73
2022-08-20T01:46:52.149Z,14.00
2022-08-20T01:49:31.917Z,16.55
2022-08-20T01:52:02.182Z,14.90
2022-08-20T01:54:31.699Z,15.40
2022-08-20T01:57:11.513Z,14.95
2022-08-20T01:59:39.968Z,17.65
2022-08-20T02:02:08.903Z,31.23
2022-08-20T02:04:36.800Z,31.83
2022-08-20T02:07:07.603Z,18.52
2022-08-20T02:09:38.839Z,11.18
2022-08-20T02:12:08.615Z,13.57
2022-08-20T02:14:43.310Z,21.65
2022-08-20T02:17:12.253Z,24.77
2022-08-20T02:19:50.750Z,14.98
2022-08-20T02:22:40.893Z,10.93
2022-08-20T02:25:18.382Z,13.30
2022-08-20T02:27:48.255Z,10.75
2022-08-20T02:30:27.755Z,10.52
2022-08-20T02:32:57.796Z,17.95
2022-08-20T02:35:26.500Z,14.93
2022-08-20T02:40:31.271Z,15.35
2022-08-20T02:43:00.945Z,15.25
2022-08-20T02:45:30.842Z,20.92
2022-08-20T02:47:58.571Z,19.70
2022-08-20T02:50:27.076Z,22.08
2022-08-20T02:52:54.446Z,27.58
2022-08-20T02:55:27.951Z,27.00
2022-08-20T02:57:59.338Z,34.38
2022-08-20T03:00:30.551Z,30.70
2022-08-20T03:03:10.313Z,27.38
2022-08-20T03:05:41.459Z,29.02
2022-08-20T03:08:11.419Z,28.77
2022-08-20T03:10:41.521Z,21.52
2022-08-20T03:13:12.225Z,28.13
2022-08-20T03:15:43.209Z,23.60
2022-08-20T03:18:10.522Z,24.88
2022-08-20T03:20:38.505Z,25.17
2022-08-20T03:23:07.144Z,29.90
2022-08-20T03:25:34.341Z,29.33
2022-08-20T03:28:01.713Z,24.40
2022-08-20T03:30:30.790Z,20.70
2022-08-20T03:32:58.520Z,24.20
2022-08-20T03:35:28.550Z,22.50
2022-08-20T03:37:55.926Z,40.20
2022-08-20T03:40:33.561Z,22.80
2022-08-20T03:43:01.283Z,27.80
2022-08-20T03:45:29.461Z,25.75
2022-08-20T03:47:57.330Z,30.48
2022-08-20T03:50:29.503Z,36.20
2022-08-20T03:52:58.867Z,27.08
2022-08-20T03:55:30.001Z,33.22
2022-08-20T03:58:05.541Z,43.13
2022-08-20T04:00:46.485Z,30.92
2022-08-20T04:03:14.947Z,29.83
2022-08-20T04:08:20.208Z,36.67
2022-08-20T04:10:50.219Z,24.60
2022-08-20T04:13:19.984Z,23.58
2022-08-20T04:15:54.544Z,24.15
2022-08-20T04:18:25.043Z,30.55
2022-08-20T04:20:53.759Z,17.48
2022-08-20T04:23:22.173Z,17.30
2022-08-20T04:25:49.324Z,18.08
2022-08-20T04:28:24.699Z,23.92
2022-08-20T04:30:52.391Z,16.88
2022-08-20T04:33:22.718Z,14.13
2022-08-20T04:36:04.878Z,15.57
2022-08-20T04:38:48.468Z,25.25
2022-08-20T04:41:22.621Z,15.70
2022-08-20T04:43:55.870Z,11.15
2022-08-20T04:46:27.794Z,14.93
2022-08-20T04:48:57.012Z,11.23
2022-08-20T04:51:24.851Z,13.63
2022-08-20T04:53:54.314Z,15.07
2022-08-20T04:56:27.617Z,11.30
2022-08-20T04:58:58.459Z,13.90
2022-08-20T05:01:26.975Z,14.73
2022-08-20T05:03:55.410Z,22.00
2022-08-20T05:06:28.122Z,23.05
2022-08-20T05:08:58.155Z,13.63
2022-08-20T05:11:33.110Z,15.02
2022-08-20T05:14:08.153Z,13.65
2022-08-20T05:16:38.001Z,14.25
2022-08-20T05:19:08.324Z,13.38
2022-08-20T05:21:36.594Z,18.00
2022-08-20T05:24:05.126Z,19.73
2022-08-20T05:26:32.928Z,14.65
2022-08-20T05:29:00.159Z,9.65
2022-08-20T05:31:31.360Z,8.15
2022-08-20T05:34:02.960Z,14.90
2022-08-20T05:36:30.252Z,10.35
2022-08-20T05:38:57.502Z,8.15
2022-08-20T05:41:28.869Z,10.90
2022-08-20T05:44:00.566Z,8.70
2022-08-20T05:46:30.537Z,25.48
2022-08-20T05:48:59.615Z,16.67
2022-08-20T05:51:29.233Z,15.90
2022-08-20T05:53:57.968Z,18.58
2022-08-20T05:56:29.559Z,14.90
2022-08-20T05:58:57.210Z,9.32
2022-08-20T06:01:24.376Z,15.13
2022-08-20T06:04:10.325Z,19.98
2022-08-20T06:06:44.172Z,53.83
2022-08-20T06:09:16.473Z,16.67
2022-08-20T06:11:55.620Z,23.23
2022-08-20T06:14:26.649Z,12.18
2022-08-20T06:16:57.978Z,14.63
2022-08-20T06:19:27.007Z,15.73
2022-08-20T06:21:55.852Z,14.93
2022-08-20T06:24:24.267Z,17.25
2022-08-20T06:27:00.721Z,14.77
2022-08-20T06:29:29.127Z,11.17
2022-08-20T06:31:56.745Z,12.32
2022-08-20T06:34:27.498Z,13.90
2022-08-20T06:36:56.554Z,17.00
2022-08-20T06:39:26.272Z,15.35
2022-08-20T06:41:55.602Z,16.92
2022-08-20T06:44:23.666Z,14.68
2022-08-20T06:46:50.709Z,15.55
2022-08-20T06:49:17.976Z,11.82
2022-08-20T06:51:45.079Z,16.55
2022-08-20T06:54:17.144Z,15.90
2022-08-20T06:56:44.284Z,20.63
2022-08-20T06:59:11.386Z,11.55
2022-08-20T07:01:38.636Z,9.32
2022-08-20T07:04:07.709Z,9.27
2022-08-20T07:06:34.752Z,15.65
2022-08-20T07:09:02.066Z,11.38
2022-08-20T07:11:29.323Z,7.40
2022-08-20T07:16:25.072Z,10.50
2022-08-20T07:18:52.584Z,9.02
2022-08-20T07:21:19.955Z,10.15
2022-08-20T07:23:48.284Z,9.82
2022-08-20T07:26:15.907Z,10.25
2022-08-20T07:28:42.977Z,15.45
2022-08-20T07:31:28.928Z,8.43
2022-08-20T07:33:59.889Z,13.30
2022-08-20T07:36:27.564Z,10.70
2022-08-20T07:38:54.991Z,12.27
2022-08-20T07:41:24.205Z,10.35
2022-08-20T07:43:51.355Z,13.73
2022-08-20T07:46:21.020Z,10.68
2022-08-20T07:48:49.570Z,9.30
2022-08-20T07:51:19.480Z,8.02
2022-08-20T07:53:48.343Z,9.00
2022-08-20T07:56:19.341Z,8.18
2022-08-20T07:58:51.865Z,18.23
2022-08-20T08:01:29.103Z,8.75
2022-08-20T08:03:57.838Z,20.58
2022-08-20T08:06:29.215Z,12.48
2022-08-20T08:09:12.515Z,10.50
2022-08-20T08:11:47.462Z,7.07
2022-08-20T08:14:26.053Z,16.02
2022-08-20T08:16:59.245Z,9.55
2022-08-20T08:19:33.656Z,6.25
2022-08-20T08:22:00.849Z,6.30
2022-08-20T08:24:28.674Z,24.53
2022-08-20T08:29:22.887Z,12.53
2022-08-20T08:31:50.027Z,6.18
2022-08-20T08:34:17.183Z,6.57
2022-08-20T08:36:44.835Z,9.80
2022-08-20T08:39:12.093Z,8.02
2022-08-20T08:41:49.273Z,9.57
2022-08-20T08:44:33.585Z,19.55
2022-08-20T08:47:17.699Z,8.45
2022-08-20T08:49:46.749Z,12.13
2022-08-20T08:52:22.966Z,13.73
2022-08-20T08:55:06.063Z,13.30
2022-08-20T08:57:33.666Z,11.07
2022-08-20T09:00:12.772Z,10.35
2022-08-20T09:02:52.688Z,9.93
2022-08-20T09:05:23.107Z,14.50
2022-08-20T09:07:53.137Z,9.75
2022-08-20T09:10:23.318Z,10.98
2022-08-20T09:12:52.022Z,8.68
2022-08-20T09:15:20.676Z,8.70
2022-08-20T09:17:48.177Z,10.52
2022-08-20T09:20:15.386Z,9.68
2022-08-20T09:22:42.470Z,6.17
2022-08-20T09:25:10.150Z,7.95
2022-08-20T09:27:37.269Z,19.92
2022-08-20T09:30:07.900Z,11.43
2022-08-20T09:32:35.085Z,8.90
2022-08-20T09:35:06.658Z,9.25
2022-08-20T09:37:37.682Z,12.23
2022-08-20T09:40:08.189Z,6.53
2022-08-20T09:42:41.336Z,7.22
2022-08-20T09:45:20.451Z,8.10
2022-08-20T09:47:56.972Z,7.93
2022-08-20T09:50:33.287Z,12.73
2022-08-20T09:53:03.357Z,8.20
2022-08-20T09:55:45.904Z,16.15
2022-08-20T09:58:34.643Z,7.63
2022-08-20T10:01:15.909Z,9.32
2022-08-20T10:03:44.385Z,11.85
2022-08-20T10:06:14.064Z,7.38
2022-08-20T10:08:41.275Z,14.35
2022-08-20T10:11:08.419Z,5.87
2022-08-20T10:13:35.857Z,10.40
2022-08-20T10:16:03.592Z,8.65
2022-08-20T10:18:31.041Z,6.68
2022-08-20T10:20:58.275Z,13.70
2022-08-20T10:23:25.403Z,9.13
2022-08-20T10:25:52.528Z,8.60
2022-08-20T10:28:19.807Z,8.83
2022-08-20T10:30:47.223Z,9.45
2022-08-20T10:33:14.440Z,5.70
2022-08-20T10:35:41.647Z,7.10
2022-08-20T10:38:08.820Z,8.48
2022-08-20T10:40:36.061Z,6.40
2022-08-20T10:43:03.527Z,8.48
2022-08-20T10:45:30.944Z,13.18
2022-08-20T10:48:01.363Z,8.98
2022-08-20T10:50:30.267Z,8.85
2022-08-20T10:52:58.349Z,8.05
2022-08-20T10:55:25.646Z,12.23
2022-08-20T10:57:52.894Z,15.37
2022-08-20T11:00:20.171Z,11.93
2022-08-20T11:02:47.430Z,5.75
2022-08-20T11:05:14.541Z,6.73
2022-08-20T11:07:55.183Z,10.80
2022-08-20T11:10:29.571Z,10.23
2022-08-20T11:12:56.913Z,6.95
2022-08-20T11:15:24.355Z,7.75
2022-08-20T11:17:52.250Z,11.35
2022-08-20T11:20:24.401Z,12.00
2022-08-20T11:22:55.213Z,9.57
2022-08-20T11:25:25.428Z,9.93
2022-08-20T11:27:54.990Z,6.72
2022-08-20T11:30:27.430Z,10.07
2022-08-20T11:32:55.509Z,11.30
2022-08-20T11:38:10.735Z,8.18
2022-08-20T11:40:38.069Z,9.82
2022-08-20T11:43:20.540Z,12.47
2022-08-20T11:45:53.953Z,5.78
2022-08-20T11:48:21.708Z,11.13
2022-08-20T11:50:50.302Z,11.40
2022-08-20T11:53:17.639Z,14.65
2022-08-20T11:55:45.055Z,8.83
2022-08-20T12:00:39.937Z,11.47
2022-08-20T12:03:08.928Z,12.60
2022-08-20T12:05:39.057Z,10.75
2022-08-20T12:08:07.773Z,11.68
2022-08-20T12:10:35.443Z,13.95
2022-08-20T12:13:04.588Z,14.27
2022-08-20T12:15:34.647Z,8.77
2022-08-20T12:18:09.174Z,9.57
2022-08-20T12:20:37.784Z,6.82
2022-08-20T12:23:05.142Z,13.63
2022-08-20T12:25:32.868Z,6.55
2022-08-20T12:28:00.647Z,6.60
2022-08-20T12:30:27.965Z,8.90
2022-08-20T12:32:55.086Z,11.45
2022-08-20T12:35:22.487Z,9.20
2022-08-20T12:37:50.131Z,7.82
2022-08-20T12:40:30.769Z,13.68
2022-08-20T12:43:02.604Z,13.80
2022-08-20T12:45:31.058Z,8.27
2022-08-20T12:48:09.345Z,8.50
2022-08-20T12:50:40.188Z,10.07
2022-08-20T12:53:08.068Z,5.60
2022-08-20T12:55:35.801Z,9.50
2022-08-20T12:58:08.725Z,5.70
2022-08-20T13:00:43.815Z,7.43
2022-08-20T13:03:12.390Z,9.07
2022-08-20T13:05:40.285Z,12.27
2022-08-20T13:10:44.939Z,7.68
2022-08-20T13:13:17.592Z,9.90
2022-08-20T13:15:50.258Z,13.45
2022-08-20T13:18:18.460Z,10.52
2022-08-20T13:20:45.959Z,7.63
2022-08-20T13:23:13.289Z,7.20
2022-08-20T13:25:40.520Z,5.43
2022-08-20T13:28:07.636Z,6.53
2022-08-20T13:30:38.028Z,12.13
2022-08-20T13:33:05.306Z,8.25
2022-08-20T13:35:32.790Z,8.38
2022-08-20T13:37:59.987Z,10.35
2022-08-20T13:40:27.188Z,8.07
2022-08-20T13:42:54.675Z,8.77
2022-08-20T13:45:21.862Z,11.90
2022-08-20T13:47:54.034Z,9.00
2022-08-20T13:50:23.750Z,5.90
2022-08-20T13:52:51.449Z,8.35
2022-08-20T13:55:21.542Z,11.98
2022-08-20T13:57:50.217Z,7.30
2022-08-20T14:00:32.081Z,8.45
2022-08-20T14:03:05.137Z,13.13
2022-08-20T14:05:33.819Z,6.30
2022-08-20T14:08:22.087Z,13.20
2022-08-20T14:10:51.364Z,8.10
2022-08-20T14:13:22.779Z,6.28
2022-08-20T14:15:50.436Z,5.32
2022-08-20T14:18:18.281Z,6.22
2022-08-20T14:20:46.005Z,8.65
2022-08-20T14:23:14.721Z,5.30
2022-08-20T14:25:46.060Z,5.53
2022-08-20T14:28:18.526Z,9.65
2022-08-20T14:30:53.327Z,8.60
2022-08-20T14:33:23.218Z,11.30
2022-08-20T14:35:51.601Z,9.82
2022-08-20T14:38:19.009Z,8.18
2022-08-20T14:40:46.762Z,6.35
2022-08-20T14:43:14.256Z,12.75
2022-08-20T14:45:41.317Z,15.88
2022-08-20T14:48:11.525Z,6.60
2022-08-20T14:50:38.742Z,7.28
2022-08-20T14:53:06.548Z,10.03
2022-08-20T14:55:37.320Z,11.90
2022-08-20T14:58:10.615Z,6.90
2022-08-20T15:00:38.839Z,9.10
2022-08-20T15:03:06.020Z,11.55
2022-08-20T15:05:34.886Z,8.20
2022-08-20T15:08:08.295Z,9.73
2022-08-20T15:10:39.090Z,9.48
2022-08-20T15:13:07.666Z,12.10
2022-08-20T15:15:34.868Z,4.72
2022-08-20T15:18:02.858Z,10.25
2022-08-20T15:22:59.749Z,11.55
2022-08-20T15:28:00.827Z,11.35
2022-08-20T15:30:30.562Z,7.68
2022-08-20T15:32:57.944Z,12.25
2022-08-20T15:35:28.183Z,14.00
2022-08-20T15:37:58.049Z,6.82
2022-08-20T15:40:30.192Z,9.70
2022-08-20T15:42:59.414Z,11.27
2022-08-20T15:45:27.152Z,11.40
2022-08-20T15:48:16.510Z,7.63
2022-08-20T15:51:13.708Z,19.42
2022-08-20T15:53:59.861Z,9.82
2022-08-20T15:57:01.253Z,12.32
2022-08-20T15:59:49.428Z,5.13
2022-08-20T16:02:25.657Z,4.72
2022-08-20T16:05:17.205Z,8.10
2022-08-20T16:08:20.482Z,9.18
2022-08-20T16:10:58.860Z,8.88
2022-08-20T16:13:54.645Z,6.50
2022-08-20T16:16:40.920Z,8.00
2022-08-20T16:19:25.780Z,9.20
2022-08-20T16:21:55.641Z,5.78
2022-08-20T16:24:23.278Z,6.88
2022-08-20T16:27:21.178Z,5.22
2022-08-20T16:30:07.761Z,8.95
2022-08-20T16:32:46.851Z,8.98
2022-08-20T16:35:36.937Z,6.55
2022-08-20T16:38:28.028Z,14.60
2022-08-20T16:41:01.604Z,9.20
2022-08-20T16:43:39.105Z,4.32
2022-08-20T16:46:19.437Z,8.68
2022-08-20T16:48:58.646Z,6.53
2022-08-20T16:51:46.160Z,4.65
2022-08-20T16:54:19.177Z,9.10
2022-08-20T16:57:05.234Z,6.95
2022-08-20T16:59:33.582Z,6.88
2022-08-20T17:02:07.286Z,5.95
2022-08-20T17:04:50.551Z,9.10
2022-08-20T17:08:07.085Z,8.68
2022-08-20T17:10:58.712Z,12.45
2022-08-20T17:13:32.547Z,10.82
2022-08-20T17:16:22.646Z,6.35
2022-08-20T17:18:53.065Z,7.32
2022-08-20T17:21:22.853Z,7.60
2022-08-20T17:24:00.702Z,6.35
2022-08-20T17:29:25.786Z,9.88
2022-08-20T17:32:22.158Z,13.88
2022-08-20T17:34:54.224Z,8.95
2022-08-20T17:37:32.751Z,5.68
2022-08-20T17:40:46.513Z,8.95
2022-08-20T17:43:30.074Z,8.45
2022-08-20T17:46:02.458Z,5.97
2022-08-20T17:48:40.746Z,11.27
2022-08-20T17:51:36.426Z,8.00
2022-08-20T17:54:33.717Z,8.95
2022-08-20T17:57:11.327Z,9.80
2022-08-20T18:00:02.383Z,10.18
2022-08-20T18:02:33.507Z,9.15
2022-08-20T18:05:01.164Z,10.32
2022-08-20T18:07:57.929Z,17.27
2022-08-20T18:10:26.787Z,45.43
2022-08-20T18:13:51.467Z,36.90
2022-08-20T18:16:49.750Z,27.40
2022-08-20T18:20:06.249Z,40.03
2022-08-20T18:22:58.958Z,17.05
2022-08-20T18:25:41.890Z,15.48
2022-08-20T18:28:28.024Z,13.07
2022-08-20T18:31:01.448Z,17.95
2022-08-20T18:33:41.596Z,21.23
2022-08-20T18:36:29.725Z,17.60
2022-08-20T18:39:06.977Z,20.83
2022-08-20T18:41:41.104Z,20.93
2022-08-20T18:44:28.434Z,15.00
2022-08-20T18:47:02.435Z,9.70
2022-08-20T18:49:40.907Z,12.50
2022-08-20T18:52:23.104Z,12.30
2022-08-20T18:55:02.327Z,14.88
2022-08-20T18:57:41.416Z,13.10
2022-08-20T19:00:15.963Z,9.68
2022-08-20T19:03:02.853Z,11.15
2022-08-20T19:05:45.129Z,9.95
2022-08-20T19:08:18.885Z,14.43
2022-08-20T19:11:33.576Z,15.15
2022-08-20T19:14:28.574Z,15.20
2022-08-20T19:17:54.031Z,12.38
2022-08-20T19:20:26.747Z,12.43
2022-08-20T19:23:19.075Z,13.57
2022-08-20T19:26:02.269Z,15.48
2022-08-20T19:28:48.129Z,8.70
2022-08-20T19:31:23.778Z,14.98
2022-08-20T19:34:19.002Z,14.73
2022-08-20T19:37:28.132Z,12.23
2022-08-20T19:39:50.303Z,12.65
2022-08-20T19:42:30.745Z,14.80
2022-08-20T19:45:06.992Z,10.52
2022-08-20T19:48:05.092Z,10.35
2022-08-20T19:51:00.080Z,12.40
2022-08-20T19:53:34.171Z,8.55
2022-08-20T19:56:15.480Z,11.57
2022-08-20T19:58:44.462Z,17.50
2022-08-20T20:01:21.406Z,18.75
2022-08-20T20:04:05.105Z,9.70
2022-08-20T20:06:41.123Z,11.23
2022-08-20T20:09:27.584Z,13.20
2022-08-20T20:12:01.998Z,10.18
2022-08-20T20:14:35.889Z,11.93
2022-08-20T20:17:09.227Z,16.58
2022-08-20T20:19:58.541Z,17.10
2022-08-20T20:22:30.511Z,12.38
2022-08-20T20:25:41.127Z,13.30
2022-08-20T20:28:28.242Z,11.00
2022-08-20T20:31:11.513Z,13.97
2022-08-20T20:33:44.124Z,17.08
2022-08-20T20:36:17.711Z,13.52
2022-08-20T20:39:04.104Z,14.32
2022-08-20T20:41:32.157Z,18.83
2022-08-20T20:44:05.537Z,12.02
2022-08-20T20:46:35.262Z,13.38
2022-08-20T20:49:08.645Z,18.02
2022-08-20T20:51:42.088Z,15.82
2022-08-20T20:54:41.495Z,21.85
2022-08-20T20:57:34.269Z,15.02
2022-08-20T21:00:13.593Z,17.63
2022-08-20T21:02:41.452Z,16.25
2022-08-20T21:05:10.487Z,10.27
2022-08-20T21:07:50.566Z,12.52
2022-08-20T21:10:22.697Z,18.30
2022-08-20T21:12:52.984Z,14.20
2022-08-20T21:15:23.614Z,15.95
2022-08-20T21:17:50.929Z,9.88
2022-08-20T21:20:20.121Z,9.57
2022-08-20T21:22:47.323Z,11.63
2022-08-20T21:25:14.562Z,12.52
2022-08-20T21:27:47.452Z,9.50
2022-08-20T21:30:16.192Z,12.00
2022-08-20T21:32:43.256Z,18.83
2022-08-20T21:35:11.655Z,18.40
2022-08-20T21:40:08.664Z,15.60
2022-08-20T21:42:38.576Z,10.30
2022-08-20T21:45:10.763Z,21.25
2022-08-20T21:47:37.946Z,12.63
2022-08-20T21:50:07.377Z,11.68
2022-08-20T21:52:35.463Z,14.27
2022-08-20T21:55:03.946Z,14.10
2022-08-20T22:00:02.767Z,13.15
2022-08-20T22:02:32.027Z,20.35
2022-08-20T22:04:59.171Z,10.63
2022-08-20T22:07:26.345Z,13.75
2022-08-20T22:09:53.468Z,9.73
2022-08-20T22:12:23.969Z,14.45
2022-08-20T22:14:52.074Z,19.63
2022-08-20T22:17:19.442Z,11.65
2022-08-20T22:19:46.645Z,11.07
2022-08-20T22:22:14.980Z,15.50
2022-08-20T22:27:09.862Z,12.13
2022-08-20T22:29:36.984Z,27.60
2022-08-20T22:32:04.581Z,13.55
2022-08-20T22:34:34.514Z,11.90
2022-08-20T22:37:03.298Z,12.80
2022-08-20T22:39:30.496Z,9.20
2022-08-20T22:41:57.813Z,10.07
2022-08-20T22:44:24.926Z,11.95
2022-08-20T22:46:55.872Z,15.55
2022-08-20T22:49:29.952Z,10.07
2022-08-20T22:51:57.383Z,12.23
2022-08-20T22:54:24.956Z,19.45
2022-08-20T22:56:53.935Z,11.83
2022-08-20T22:59:22.117Z,11.00
2022-08-20T23:01:51.609Z,13.38
2022-08-20T23:04:32.090Z,9.20
2022-08-20T23:07:01.224Z,12.43
2022-08-20T23:09:30.288Z,9.45
2022-08-20T23:11:57.764Z,13.63
2022-08-20T23:14:27.400Z,8.45
2022-08-20T23:17:13.460Z,16.85
2022-08-20T23:19:42.134Z,10.35
2022-08-20T23:22:09.771Z,10.75
2022-08-20T23:24:37.883Z,9.98
2022-08-20T23:27:07.144Z,10.18
2022-08-20T23:29:35.039Z,12.50
2022-08-20T23:32:02.558Z,14.18
2022-08-20T23:34:29.868Z,9.30
2022-08-20T23:36:59.054Z,11.15
2022-08-20T23:39:27.640Z,13.60
2022-08-20T23:41:55.172Z,12.45
2022-08-20T23:44:26.655Z,8.57
2022-08-20T23:47:02.107Z,10.60
2022-08-20T23:49:31.045Z,12.65
2022-08-20T23:51:59.976Z,6.45
2022-08-20T23:54:29.835Z,11.75
2022-08-20T23:56:57.236Z,9.60
2022-08-20T23:59:25.603Z,16.02
